sensor_id;sensor_type;location;lat;lon;timestamp;temperature;humidity
29453;DHT22;16424;50.956;5.320;2022-10-31T00:00:12;15.00;99.90
29453;DHT22;16424;50.956;5.320;2022-10-31T00:02:37;15.00;99.90
29453;DHT22;16424;50.956;5.320;2022-10-31T00:05:04;14.90;99.90
29453;DHT22;16424;50.956;5.320;2022-10-31T00:07:29;15.00;99.90
29453;DHT22;16424;50.956;5.320;2022-10-31T00:09:55;15.10;99.90
29453;DHT22;16424;50.956;5.320;2022-10-31T00:12:20;15.20;99.90
29453;DHT22;16424;50.956;5.320;2022-10-31T00:14:46;15.20;99.90
29453;DHT22;16424;50.956;5.320;2022-10-31T00:17:12;15.20;99.90
29453;DHT22;16424;50.956;5.320;2022-10-31T00:19:37;15.10;99.90
29453;DHT22;16424;50.956;5.320;2022-10-31T00:22:03;15.10;99.90
29453;DHT22;16424;50.956;5.320;2022-10-31T00:24:28;15.00;99.90
29453;DHT22;16424;50.956;5.320;2022-10-31T00:26:54;15.10;99.90
29453;DHT22;16424;50.956;5.320;2022-10-31T00:29:19;15.10;99.90
29453;DHT22;16424;50.956;5.320;2022-10-31T00:31:45;15.20;99.90
29453;DHT22;16424;50.956;5.320;2022-10-31T00:34:11;15.20;99.90
29453;DHT22;16424;50.956;5.320;2022-10-31T00:36:36;15.20;99.90
29453;DHT22;16424;50.956;5.320;2022-10-31T00:39:02;15.20;99.90
29453;DHT22;16424;50.956;5.320;2022-10-31T00:41:28;15.20;99.90
29453;DHT22;16424;50.956;5.320;2022-10-31T00:43:54;15.20;99.90
29453;DHT22;16424;50.956;5.320;2022-10-31T00:46:20;15.20;99.90
29453;DHT22;16424;50.956;5.320;2022-10-31T00:48:46;15.20;99.90
29453;DHT22;16424;50.956;5.320;2022-10-31T00:51:11;15.10;99.90
29453;DHT22;16424;50.956;5.320;2022-10-31T00:53:37;15.10;99.90
29453;DHT22;16424;50.956;5.320;2022-10-31T00:56:03;15.10;99.90
29453;DHT22;16424;50.956;5.320;2022-10-31T00:58:29;15.10;99.90
29453;DHT22;16424;50.956;5.320;2022-10-31T01:00:55;15.10;99.90
29453;DHT22;16424;50.956;5.320;2022-10-31T01:03:25;15.10;99.90
29453;DHT22;16424;50.956;5.320;2022-10-31T01:08:22;15.00;99.90
29453;DHT22;16424;50.956;5.320;2022-10-31T01:11:19;15.00;99.90
29453;DHT22;16424;50.956;5.320;2022-10-31T01:13:44;14.90;99.90
29453;DHT22;16424;50.956;5.320;2022-10-31T01:16:13;15.00;99.90
29453;DHT22;16424;50.956;5.320;2022-10-31T01:18:39;15.10;99.90
29453;DHT22;16424;50.956;5.320;2022-10-31T01:21:11;15.10;99.90
29453;DHT22;16424;50.956;5.320;2022-10-31T01:23:37;15.10;99.90
29453;DHT22;16424;50.956;5.320;2022-10-31T01:26:17;15.00;99.90
29453;DHT22;16424;50.956;5.320;2022-10-31T01:28:54;14.90;99.90
29453;DHT22;16424;50.956;5.320;2022-10-31T01:31:23;14.80;99.90
29453;DHT22;16424;50.956;5.320;2022-10-31T01:33:49;14.80;99.90
29453;DHT22;16424;50.956;5.320;2022-10-31T01:36:26;14.80;99.90
29453;DHT22;16424;50.956;5.320;2022-10-31T01:38:53;14.70;99.90
29453;DHT22;16424;50.956;5.320;2022-10-31T01:41:23;14.70;99.90
29453;DHT22;16424;50.956;5.320;2022-10-31T01:46:24;14.60;99.90
29453;DHT22;16424;50.956;5.320;2022-10-31T01:48:53;14.70;99.90
29453;DHT22;16424;50.956;5.320;2022-10-31T01:51:21;14.70;99.90
29453;DHT22;16424;50.956;5.320;2022-10-31T01:53:49;14.60;99.90
29453;DHT22;16424;50.956;5.320;2022-10-31T01:56:17;14.60;99.90
29453;DHT22;16424;50.956;5.320;2022-10-31T01:58:44;14.60;99.90
29453;DHT22;16424;50.956;5.320;2022-10-31T02:01:10;14.60;99.90
29453;DHT22;16424;50.956;5.320;2022-10-31T02:03:37;14.60;99.90
29453;DHT22;16424;50.956;5.320;2022-10-31T02:06:07;14.60;99.90
29453;DHT22;16424;50.956;5.320;2022-10-31T02:08:37;14.60;99.90
29453;DHT22;16424;50.956;5.320;2022-10-31T02:11:03;14.60;99.90
29453;DHT22;16424;50.956;5.320;2022-10-31T02:13:29;14.60;99.90
29453;DHT22;16424;50.956;5.320;2022-10-31T02:15:57;14.60;99.90
29453;DHT22;16424;50.956;5.320;2022-10-31T02:18:26;14.50;99.90
29453;DHT22;16424;50.956;5.320;2022-10-31T02:20:58;14.50;99.90
29453;DHT22;16424;50.956;5.320;2022-10-31T02:32:27;14.30;99.90
29453;DHT22;16424;50.956;5.320;2022-10-31T02:35:03;14.30;99.90
29453;DHT22;16424;50.956;5.320;2022-10-31T02:37:38;14.30;99.90
29453;DHT22;16424;50.956;5.320;2022-10-31T02:40:26;14.30;99.90
29453;DHT22;16424;50.956;5.320;2022-10-31T02:48:01;14.30;99.90
29453;DHT22;16424;50.956;5.320;2022-10-31T02:50:32;14.30;99.90
29453;DHT22;16424;50.956;5.320;2022-10-31T02:53:01;14.30;99.90
29453;DHT22;16424;50.956;5.320;2022-10-31T02:57:56;14.30;99.90
29453;DHT22;16424;50.956;5.320;2022-10-31T03:00:24;14.30;99.90
29453;DHT22;16424;50.956;5.320;2022-10-31T03:08:28;14.20;99.90
29453;DHT22;16424;50.956;5.320;2022-10-31T03:10:58;14.10;99.90
29453;DHT22;16424;50.956;5.320;2022-10-31T03:13:32;14.10;99.90
29453;DHT22;16424;50.956;5.320;2022-10-31T03:18:40;14.00;99.90
29453;DHT22;16424;50.956;5.320;2022-10-31T03:21:10;14.00;99.90
29453;DHT22;16424;50.956;5.320;2022-10-31T03:23:39;14.00;99.90
29453;DHT22;16424;50.956;5.320;2022-10-31T03:26:07;14.10;99.90
29453;DHT22;16424;50.956;5.320;2022-10-31T03:28:54;14.10;99.90
29453;DHT22;16424;50.956;5.320;2022-10-31T03:31:27;14.20;99.90
29453;DHT22;16424;50.956;5.320;2022-10-31T03:33:56;14.10;99.90
29453;DHT22;16424;50.956;5.320;2022-10-31T03:36:23;14.10;99.90
29453;DHT22;16424;50.956;5.320;2022-10-31T03:38:51;14.10;99.90
29453;DHT22;16424;50.956;5.320;2022-10-31T03:41:24;14.00;99.90
29453;DHT22;16424;50.956;5.320;2022-10-31T03:43:57;14.20;99.90
29453;DHT22;16424;50.956;5.320;2022-10-31T03:46:27;14.00;99.90
29453;DHT22;16424;50.956;5.320;2022-10-31T03:48:53;13.90;99.90
29453;DHT22;16424;50.956;5.320;2022-10-31T03:56:34;14.00;99.90
29453;DHT22;16424;50.956;5.320;2022-10-31T03:59:07;14.00;99.90
29453;DHT22;16424;50.956;5.320;2022-10-31T04:01:40;14.20;99.90
29453;DHT22;16424;50.956;5.320;2022-10-31T04:04:06;14.00;99.90
29453;DHT22;16424;50.956;5.320;2022-10-31T04:06:34;14.10;99.90
29453;DHT22;16424;50.956;5.320;2022-10-31T04:09:04;14.00;99.90
29453;DHT22;16424;50.956;5.320;2022-10-31T04:11:34;14.00;99.90
29453;DHT22;16424;50.956;5.320;2022-10-31T04:14:01;14.00;99.90
29453;DHT22;16424;50.956;5.320;2022-10-31T04:16:28;14.10;99.90
29453;DHT22;16424;50.956;5.320;2022-10-31T04:18:54;14.10;99.90
29453;DHT22;16424;50.956;5.320;2022-10-31T04:21:27;14.10;99.90
29453;DHT22;16424;50.956;5.320;2022-10-31T04:23:54;14.00;99.90
29453;DHT22;16424;50.956;5.320;2022-10-31T04:26:19;13.90;99.90
29453;DHT22;16424;50.956;5.320;2022-10-31T04:28:45;13.90;99.90
29453;DHT22;16424;50.956;5.320;2022-10-31T04:31:11;14.00;99.90
29453;DHT22;16424;50.956;5.320;2022-10-31T04:33:37;14.00;99.90
29453;DHT22;16424;50.956;5.320;2022-10-31T04:36:04;13.80;99.90
29453;DHT22;16424;50.956;5.320;2022-10-31T04:38:30;13.80;99.90
29453;DHT22;16424;50.956;5.320;2022-10-31T04:40:55;13.90;99.90
29453;DHT22;16424;50.956;5.320;2022-10-31T04:43:21;13.90;99.90
29453;DHT22;16424;50.956;5.320;2022-10-31T04:45:47;13.90;99.90
29453;DHT22;16424;50.956;5.320;2022-10-31T04:48:13;13.90;99.90
29453;DHT22;16424;50.956;5.320;2022-10-31T04:50:38;14.00;99.90
29453;DHT22;16424;50.956;5.320;2022-10-31T04:53:04;14.00;99.90
29453;DHT22;16424;50.956;5.320;2022-10-31T04:55:29;14.00;99.90
29453;DHT22;16424;50.956;5.320;2022-10-31T04:57:55;14.00;99.90
29453;DHT22;16424;50.956;5.320;2022-10-31T05:00:21;14.00;99.90
29453;DHT22;16424;50.956;5.320;2022-10-31T05:02:48;13.90;99.90
29453;DHT22;16424;50.956;5.320;2022-10-31T05:05:16;13.80;99.90
29453;DHT22;16424;50.956;5.320;2022-10-31T05:07:43;13.80;99.90
29453;DHT22;16424;50.956;5.320;2022-10-31T05:10:11;13.70;99.90
29453;DHT22;16424;50.956;5.320;2022-10-31T05:12:37;13.70;99.90
29453;DHT22;16424;50.956;5.320;2022-10-31T05:15:06;13.50;99.90
29453;DHT22;16424;50.956;5.320;2022-10-31T05:17:32;13.40;99.90
29453;DHT22;16424;50.956;5.320;2022-10-31T05:19:58;13.40;99.90
29453;DHT22;16424;50.956;5.320;2022-10-31T05:22:26;13.30;99.90
29453;DHT22;16424;50.956;5.320;2022-10-31T05:24:52;13.30;99.90
29453;DHT22;16424;50.956;5.320;2022-10-31T05:27:18;13.30;99.90
29453;DHT22;16424;50.956;5.320;2022-10-31T05:29:43;13.30;99.90
29453;DHT22;16424;50.956;5.320;2022-10-31T05:32:09;13.40;99.90
29453;DHT22;16424;50.956;5.320;2022-10-31T05:34:34;13.50;99.90
29453;DHT22;16424;50.956;5.320;2022-10-31T05:37:00;13.50;99.90
29453;DHT22;16424;50.956;5.320;2022-10-31T05:39:26;13.50;99.90
29453;DHT22;16424;50.956;5.320;2022-10-31T05:41:55;13.60;99.90
29453;DHT22;16424;50.956;5.320;2022-10-31T05:44:20;13.60;99.90
29453;DHT22;16424;50.956;5.320;2022-10-31T05:46:46;13.60;99.90
29453;DHT22;16424;50.956;5.320;2022-10-31T05:49:15;13.50;99.90
29453;DHT22;16424;50.956;5.320;2022-10-31T05:51:42;13.40;99.90
29453;DHT22;16424;50.956;5.320;2022-10-31T05:54:08;13.40;99.90
29453;DHT22;16424;50.956;5.320;2022-10-31T05:56:33;13.30;99.90
29453;DHT22;16424;50.956;5.320;2022-10-31T05:58:59;13.30;99.90
29453;DHT22;16424;50.956;5.320;2022-10-31T06:01:25;13.30;99.90
29453;DHT22;16424;50.956;5.320;2022-10-31T06:03:51;13.40;99.90
29453;DHT22;16424;50.956;5.320;2022-10-31T06:06:16;13.40;99.90
29453;DHT22;16424;50.956;5.320;2022-10-31T06:08:42;13.50;99.90
29453;DHT22;16424;50.956;5.320;2022-10-31T06:11:08;13.60;99.90
29453;DHT22;16424;50.956;5.320;2022-10-31T06:13:34;13.50;99.90
29453;DHT22;16424;50.956;5.320;2022-10-31T06:15:59;13.50;99.90
29453;DHT22;16424;50.956;5.320;2022-10-31T06:18:25;13.50;99.90
29453;DHT22;16424;50.956;5.320;2022-10-31T06:20:50;13.40;99.90
29453;DHT22;16424;50.956;5.320;2022-10-31T06:23:16;13.40;99.90
29453;DHT22;16424;50.956;5.320;2022-10-31T06:25:48;13.30;99.90
29453;DHT22;16424;50.956;5.320;2022-10-31T06:28:14;13.20;99.90
29453;DHT22;16424;50.956;5.320;2022-10-31T06:30:40;13.20;99.90
29453;DHT22;16424;50.956;5.320;2022-10-31T06:33:05;13.10;99.90
29453;DHT22;16424;50.956;5.320;2022-10-31T06:35:31;13.10;99.90
29453;DHT22;16424;50.956;5.320;2022-10-31T06:37:57;13.00;99.90
29453;DHT22;16424;50.956;5.320;2022-10-31T06:40:23;13.00;99.90
29453;DHT22;16424;50.956;5.320;2022-10-31T06:42:59;13.00;99.90
29453;DHT22;16424;50.956;5.320;2022-10-31T06:45:25;12.90;99.90
29453;DHT22;16424;50.956;5.320;2022-10-31T06:47:52;12.90;99.90
29453;DHT22;16424;50.956;5.320;2022-10-31T06:50:19;12.90;99.90
29453;DHT22;16424;50.956;5.320;2022-10-31T06:52:56;12.90;99.90
29453;DHT22;16424;50.956;5.320;2022-10-31T06:55:22;12.90;99.90
29453;DHT22;16424;50.956;5.320;2022-10-31T06:57:52;12.90;99.90
29453;DHT22;16424;50.956;5.320;2022-10-31T07:00:18;13.10;99.90
29453;DHT22;16424;50.956;5.320;2022-10-31T07:02:51;13.00;99.90
29453;DHT22;16424;50.956;5.320;2022-10-31T07:05:17;13.10;99.90
29453;DHT22;16424;50.956;5.320;2022-10-31T07:07:43;13.20;99.90
29453;DHT22;16424;50.956;5.320;2022-10-31T07:10:08;13.30;99.90
29453;DHT22;16424;50.956;5.320;2022-10-31T07:12:34;13.40;99.90
29453;DHT22;16424;50.956;5.320;2022-10-31T07:15:00;13.40;99.90
29453;DHT22;16424;50.956;5.320;2022-10-31T07:17:25;13.40;99.90
29453;DHT22;16424;50.956;5.320;2022-10-31T07:19:51;13.50;99.90
29453;DHT22;16424;50.956;5.320;2022-10-31T07:22:16;13.60;99.90
29453;DHT22;16424;50.956;5.320;2022-10-31T07:24:42;13.60;99.90
29453;DHT22;16424;50.956;5.320;2022-10-31T07:27:07;13.70;99.90
29453;DHT22;16424;50.956;5.320;2022-10-31T07:29:33;13.80;99.90
29453;DHT22;16424;50.956;5.320;2022-10-31T07:31:59;13.80;99.90
29453;DHT22;16424;50.956;5.320;2022-10-31T07:34:24;13.90;99.90
29453;DHT22;16424;50.956;5.320;2022-10-31T07:36:50;13.90;99.90
29453;DHT22;16424;50.956;5.320;2022-10-31T07:39:16;13.90;99.90
29453;DHT22;16424;50.956;5.320;2022-10-31T07:41:41;13.90;99.90
29453;DHT22;16424;50.956;5.320;2022-10-31T07:44:07;13.70;99.90
29453;DHT22;16424;50.956;5.320;2022-10-31T07:46:33;13.60;99.90
29453;DHT22;16424;50.956;5.320;2022-10-31T07:48:58;13.60;99.90
29453;DHT22;16424;50.956;5.320;2022-10-31T07:51:24;13.50;99.90
29453;DHT22;16424;50.956;5.320;2022-10-31T07:53:50;13.50;99.90
29453;DHT22;16424;50.956;5.320;2022-10-31T07:56:15;13.60;99.90
29453;DHT22;16424;50.956;5.320;2022-10-31T07:58:41;13.50;99.90
29453;DHT22;16424;50.956;5.320;2022-10-31T08:01:06;13.60;99.90
29453;DHT22;16424;50.956;5.320;2022-10-31T08:03:32;13.60;99.90
29453;DHT22;16424;50.956;5.320;2022-10-31T08:05:58;13.70;99.90
29453;DHT22;16424;50.956;5.320;2022-10-31T08:08:23;13.80;99.90
29453;DHT22;16424;50.956;5.320;2022-10-31T08:10:49;13.90;99.90
29453;DHT22;16424;50.956;5.320;2022-10-31T08:13:15;14.30;99.90
29453;DHT22;16424;50.956;5.320;2022-10-31T08:15:41;14.60;99.90
29453;DHT22;16424;50.956;5.320;2022-10-31T08:18:12;14.80;99.90
29453;DHT22;16424;50.956;5.320;2022-10-31T08:20:38;15.00;99.90
29453;DHT22;16424;50.956;5.320;2022-10-31T08:23:05;15.20;99.90
29453;DHT22;16424;50.956;5.320;2022-10-31T08:25:33;15.20;99.90
29453;DHT22;16424;50.956;5.320;2022-10-31T08:27:59;15.10;99.90
29453;DHT22;16424;50.956;5.320;2022-10-31T08:30:27;15.30;99.90
29453;DHT22;16424;50.956;5.320;2022-10-31T08:35:36;15.60;99.90
29453;DHT22;16424;50.956;5.320;2022-10-31T08:38:03;15.80;99.90
29453;DHT22;16424;50.956;5.320;2022-10-31T08:40:30;16.00;99.90
29453;DHT22;16424;50.956;5.320;2022-10-31T08:45:30;16.50;99.90
29453;DHT22;16424;50.956;5.320;2022-10-31T08:48:00;16.90;99.90
29453;DHT22;16424;50.956;5.320;2022-10-31T08:50:27;17.00;99.90
29453;DHT22;16424;50.956;5.320;2022-10-31T08:52:53;17.20;99.90
29453;DHT22;16424;50.956;5.320;2022-10-31T08:55:19;17.40;99.90
29453;DHT22;16424;50.956;5.320;2022-10-31T08:57:45;17.60;99.90
29453;DHT22;16424;50.956;5.320;2022-10-31T09:00:11;17.60;99.90
29453;DHT22;16424;50.956;5.320;2022-10-31T09:02:36;17.50;99.90
29453;DHT22;16424;50.956;5.320;2022-10-31T09:05:04;17.70;99.90
29453;DHT22;16424;50.956;5.320;2022-10-31T09:07:30;17.60;99.90
29453;DHT22;16424;50.956;5.320;2022-10-31T09:09:55;17.40;99.90
29453;DHT22;16424;50.956;5.320;2022-10-31T09:12:21;17.40;99.90
29453;DHT22;16424;50.956;5.320;2022-10-31T09:14:49;17.60;99.90
29453;DHT22;16424;50.956;5.320;2022-10-31T09:17:14;18.20;99.90
29453;DHT22;16424;50.956;5.320;2022-10-31T09:19:40;18.70;99.90
29453;DHT22;16424;50.956;5.320;2022-10-31T09:22:06;18.80;99.90
29453;DHT22;16424;50.956;5.320;2022-10-31T09:24:31;18.90;99.90
29453;DHT22;16424;50.956;5.320;2022-10-31T09:26:58;18.50;99.90
29453;DHT22;16424;50.956;5.320;2022-10-31T09:29:23;18.30;99.90
29453;DHT22;16424;50.956;5.320;2022-10-31T09:31:49;18.00;99.90
29453;DHT22;16424;50.956;5.320;2022-10-31T09:34:15;17.60;99.90
29453;DHT22;16424;50.956;5.320;2022-10-31T09:36:40;17.30;99.90
29453;DHT22;16424;50.956;5.320;2022-10-31T09:39:06;17.40;99.90
29453;DHT22;16424;50.956;5.320;2022-10-31T09:41:56;17.40;99.90
29453;DHT22;16424;50.956;5.320;2022-10-31T09:52:39;17.20;99.90
29453;DHT22;16424;50.956;5.320;2022-10-31T09:55:24;17.20;99.90
29453;DHT22;16424;50.956;5.320;2022-10-31T09:57:53;17.40;99.90
29453;DHT22;16424;50.956;5.320;2022-10-31T10:00:20;17.50;99.90
29453;DHT22;16424;50.956;5.320;2022-10-31T10:02:54;17.70;99.90
29453;DHT22;16424;50.956;5.320;2022-10-31T10:05:27;18.00;99.90
29453;DHT22;16424;50.956;5.320;2022-10-31T10:08:16;18.00;99.90
29453;DHT22;16424;50.956;5.320;2022-10-31T10:18:55;17.90;99.90
29453;DHT22;16424;50.956;5.320;2022-10-31T10:21:36;17.90;99.90
29453;DHT22;16424;50.956;5.320;2022-10-31T10:30:18;18.00;99.90
29453;DHT22;16424;50.956;5.320;2022-10-31T10:32:52;18.30;99.90
29453;DHT22;16424;50.956;5.320;2022-10-31T10:35:46;18.30;99.90
29453;DHT22;16424;50.956;5.320;2022-10-31T10:40:58;18.60;99.90
29453;DHT22;16424;50.956;5.320;2022-10-31T10:43:35;18.50;99.90
29453;DHT22;16424;50.956;5.320;2022-10-31T10:46:17;18.30;99.90
29453;DHT22;16424;50.956;5.320;2022-10-31T10:52:10;18.30;99.90
29453;DHT22;16424;50.956;5.320;2022-10-31T10:54:45;18.60;99.90
29453;DHT22;16424;50.956;5.320;2022-10-31T11:00:01;18.50;99.90
29453;DHT22;16424;50.956;5.320;2022-10-31T11:02:32;18.60;99.90
29453;DHT22;16424;50.956;5.320;2022-10-31T11:05:00;18.40;99.90
29453;DHT22;16424;50.956;5.320;2022-10-31T11:07:36;18.50;99.90
29453;DHT22;16424;50.956;5.320;2022-10-31T11:10:04;18.60;99.90
29453;DHT22;16424;50.956;5.320;2022-10-31T11:12:32;18.90;99.90
29453;DHT22;16424;50.956;5.320;2022-10-31T11:15:02;18.70;99.90
29453;DHT22;16424;50.956;5.320;2022-10-31T11:17:39;18.30;99.90
29453;DHT22;16424;50.956;5.320;2022-10-31T11:22:43;18.50;99.90
29453;DHT22;16424;50.956;5.320;2022-10-31T11:25:22;18.30;99.90
29453;DHT22;16424;50.956;5.320;2022-10-31T11:28:05;18.20;99.90
29453;DHT22;16424;50.956;5.320;2022-10-31T11:30:48;18.40;99.90
29453;DHT22;16424;50.956;5.320;2022-10-31T11:33:35;18.40;99.90
29453;DHT22;16424;50.956;5.320;2022-10-31T11:36:13;18.70;99.90
29453;DHT22;16424;50.956;5.320;2022-10-31T11:38:42;18.80;99.90
29453;DHT22;16424;50.956;5.320;2022-10-31T11:41:23;18.90;99.90
29453;DHT22;16424;50.956;5.320;2022-10-31T11:43:55;19.00;99.90
29453;DHT22;16424;50.956;5.320;2022-10-31T11:46:39;19.20;99.90
29453;DHT22;16424;50.956;5.320;2022-10-31T11:49:15;19.20;99.90
29453;DHT22;16424;50.956;5.320;2022-10-31T11:51:42;19.00;99.90
29453;DHT22;16424;50.956;5.320;2022-10-31T11:57:22;19.00;99.90
29453;DHT22;16424;50.956;5.320;2022-10-31T11:59:53;19.00;99.90
29453;DHT22;16424;50.956;5.320;2022-10-31T12:02:20;18.90;99.90
29453;DHT22;16424;50.956;5.320;2022-10-31T12:07:30;19.20;99.90
29453;DHT22;16424;50.956;5.320;2022-10-31T12:09:56;18.70;99.90
29453;DHT22;16424;50.956;5.320;2022-10-31T12:31:46;18.90;99.90
29453;DHT22;16424;50.956;5.320;2022-10-31T12:39:44;19.60;99.90
29453;DHT22;16424;50.956;5.320;2022-10-31T12:42:38;19.50;99.90
29453;DHT22;16424;50.956;5.320;2022-10-31T12:48:05;19.50;99.90
29453;DHT22;16424;50.956;5.320;2022-10-31T12:56:36;19.70;99.90
29453;DHT22;16424;50.956;5.320;2022-10-31T12:59:18;19.60;99.90
29453;DHT22;16424;50.956;5.320;2022-10-31T13:01:52;19.60;99.90
29453;DHT22;16424;50.956;5.320;2022-10-31T13:07:14;19.70;99.90
29453;DHT22;16424;50.956;5.320;2022-10-31T13:09:47;19.60;99.90
29453;DHT22;16424;50.956;5.320;2022-10-31T13:12:17;19.60;99.90
29453;DHT22;16424;50.956;5.320;2022-10-31T13:14:56;19.50;99.90
29453;DHT22;16424;50.956;5.320;2022-10-31T13:19:51;19.90;99.90
29453;DHT22;16424;50.956;5.320;2022-10-31T13:22:27;19.70;99.90
29453;DHT22;16424;50.956;5.320;2022-10-31T13:25:02;19.70;99.90
29453;DHT22;16424;50.956;5.320;2022-10-31T13:27:33;19.80;99.90
29453;DHT22;16424;50.956;5.320;2022-10-31T13:32:44;19.70;99.90
29453;DHT22;16424;50.956;5.320;2022-10-31T13:35:28;19.60;99.90
29453;DHT22;16424;50.956;5.320;2022-10-31T13:38:26;19.80;99.90
29453;DHT22;16424;50.956;5.320;2022-10-31T13:44:21;19.70;99.90
29453;DHT22;16424;50.956;5.320;2022-10-31T13:46:49;19.90;99.90
29453;DHT22;16424;50.956;5.320;2022-10-31T13:54:44;20.10;99.90
29453;DHT22;16424;50.956;5.320;2022-10-31T14:02:51;20.20;99.90
29453;DHT22;16424;50.956;5.320;2022-10-31T14:05:32;20.10;99.90
29453;DHT22;16424;50.956;5.320;2022-10-31T14:08:01;20.10;99.90
29453;DHT22;16424;50.956;5.320;2022-10-31T14:10:32;20.10;99.90
29453;DHT22;16424;50.956;5.320;2022-10-31T14:13:08;20.10;99.90
29453;DHT22;16424;50.956;5.320;2022-10-31T14:15:42;20.10;99.90
29453;DHT22;16424;50.956;5.320;2022-10-31T14:18:25;20.30;99.90
29453;DHT22;16424;50.956;5.320;2022-10-31T14:20:54;20.40;99.90
29453;DHT22;16424;50.956;5.320;2022-10-31T14:23:39;20.10;99.90
29453;DHT22;16424;50.956;5.320;2022-10-31T14:28:52;20.10;99.90
29453;DHT22;16424;50.956;5.320;2022-10-31T14:33:59;20.20;99.90
29453;DHT22;16424;50.956;5.320;2022-10-31T14:50:42;20.30;99.90
29453;DHT22;16424;50.956;5.320;2022-10-31T14:55:54;20.10;99.90
29453;DHT22;16424;50.956;5.320;2022-10-31T14:58:43;20.10;99.90
29453;DHT22;16424;50.956;5.320;2022-10-31T15:01:32;20.10;99.90
29453;DHT22;16424;50.956;5.320;2022-10-31T15:04:04;20.00;99.90
29453;DHT22;16424;50.956;5.320;2022-10-31T15:06:40;20.00;99.90
29453;DHT22;16424;50.956;5.320;2022-10-31T15:09:21;20.10;99.90
29453;DHT22;16424;50.956;5.320;2022-10-31T15:11:48;20.00;99.90
29453;DHT22;16424;50.956;5.320;2022-10-31T15:14:28;20.00;99.90
29453;DHT22;16424;50.956;5.320;2022-10-31T15:16:59;20.20;99.90
29453;DHT22;16424;50.956;5.320;2022-10-31T15:19:28;20.00;99.90
29453;DHT22;16424;50.956;5.320;2022-10-31T15:21:57;19.80;99.90
29453;DHT22;16424;50.956;5.320;2022-10-31T15:24:25;19.70;99.90
29453;DHT22;16424;50.956;5.320;2022-10-31T15:26:53;19.70;99.90
29453;DHT22;16424;50.956;5.320;2022-10-31T15:29:24;19.70;99.90
29453;DHT22;16424;50.956;5.320;2022-10-31T15:31:58;19.80;99.90
29453;DHT22;16424;50.956;5.320;2022-10-31T15:34:39;19.80;99.90
29453;DHT22;16424;50.956;5.320;2022-10-31T15:37:14;19.80;99.90
29453;DHT22;16424;50.956;5.320;2022-10-31T15:39:40;19.60;99.90
29453;DHT22;16424;50.956;5.320;2022-10-31T15:48:22;19.70;99.90
29453;DHT22;16424;50.956;5.320;2022-10-31T15:50:54;19.60;99.90
29453;DHT22;16424;50.956;5.320;2022-10-31T15:53:33;19.50;99.90
29453;DHT22;16424;50.956;5.320;2022-10-31T15:56:08;19.40;99.90
29453;DHT22;16424;50.956;5.320;2022-10-31T15:58:43;19.40;99.90
29453;DHT22;16424;50.956;5.320;2022-10-31T16:01:21;19.40;99.90
29453;DHT22;16424;50.956;5.320;2022-10-31T16:06:38;19.70;99.90
29453;DHT22;16424;50.956;5.320;2022-10-31T16:09:22;19.60;99.90
29453;DHT22;16424;50.956;5.320;2022-10-31T16:11:48;19.50;99.90
29453;DHT22;16424;50.956;5.320;2022-10-31T16:14:26;19.50;99.90
29453;DHT22;16424;50.956;5.320;2022-10-31T16:16:55;19.40;99.90
29453;DHT22;16424;50.956;5.320;2022-10-31T16:19:28;19.30;99.90
29453;DHT22;16424;50.956;5.320;2022-10-31T16:22:06;19.20;99.90
29453;DHT22;16424;50.956;5.320;2022-10-31T16:24:38;19.10;99.90
29453;DHT22;16424;50.956;5.320;2022-10-31T16:27:20;19.00;99.90
29453;DHT22;16424;50.956;5.320;2022-10-31T16:29:51;18.80;99.90
29453;DHT22;16424;50.956;5.320;2022-10-31T16:35:21;18.80;99.90
29453;DHT22;16424;50.956;5.320;2022-10-31T16:37:48;18.70;99.90
29453;DHT22;16424;50.956;5.320;2022-10-31T16:40:14;18.80;99.90
29453;DHT22;16424;50.956;5.320;2022-10-31T16:42:44;18.70;99.90
29453;DHT22;16424;50.956;5.320;2022-10-31T16:45:26;18.70;99.90
29453;DHT22;16424;50.956;5.320;2022-10-31T16:47:52;18.70;99.90
29453;DHT22;16424;50.956;5.320;2022-10-31T16:50:23;18.80;99.90
29453;DHT22;16424;50.956;5.320;2022-10-31T16:52:50;18.80;99.90
29453;DHT22;16424;50.956;5.320;2022-10-31T16:55:17;18.70;99.90
29453;DHT22;16424;50.956;5.320;2022-10-31T16:57:55;18.50;99.90
29453;DHT22;16424;50.956;5.320;2022-10-31T17:00:24;18.40;99.90
29453;DHT22;16424;50.956;5.320;2022-10-31T17:02:52;18.30;99.90
29453;DHT22;16424;50.956;5.320;2022-10-31T17:05:20;18.30;99.90
29453;DHT22;16424;50.956;5.320;2022-10-31T17:07:47;18.40;99.90
29453;DHT22;16424;50.956;5.320;2022-10-31T17:10:14;18.40;99.90
29453;DHT22;16424;50.956;5.320;2022-10-31T17:12:44;18.40;99.90
29453;DHT22;16424;50.956;5.320;2022-10-31T17:15:16;18.60;99.90
29453;DHT22;16424;50.956;5.320;2022-10-31T17:17:43;18.60;99.90
29453;DHT22;16424;50.956;5.320;2022-10-31T17:20:22;18.60;99.90
29453;DHT22;16424;50.956;5.320;2022-10-31T17:22:48;18.40;99.90
29453;DHT22;16424;50.956;5.320;2022-10-31T17:25:16;18.40;99.90
29453;DHT22;16424;50.956;5.320;2022-10-31T17:27:42;18.40;99.90
29453;DHT22;16424;50.956;5.320;2022-10-31T17:30:11;18.20;99.90
29453;DHT22;16424;50.956;5.320;2022-10-31T17:32:37;18.20;99.90
29453;DHT22;16424;50.956;5.320;2022-10-31T17:35:03;18.30;99.90
29453;DHT22;16424;50.956;5.320;2022-10-31T17:37:29;18.30;99.90
29453;DHT22;16424;50.956;5.320;2022-10-31T17:39:54;18.30;99.90
29453;DHT22;16424;50.956;5.320;2022-10-31T17:42:20;18.20;99.90
29453;DHT22;16424;50.956;5.320;2022-10-31T17:44:46;18.30;99.90
29453;DHT22;16424;50.956;5.320;2022-10-31T17:47:11;18.30;99.90
29453;DHT22;16424;50.956;5.320;2022-10-31T17:49:37;18.30;99.90
29453;DHT22;16424;50.956;5.320;2022-10-31T17:52:03;18.20;99.90
29453;DHT22;16424;50.956;5.320;2022-10-31T17:54:29;18.20;99.90
29453;DHT22;16424;50.956;5.320;2022-10-31T17:56:54;18.10;99.90
29453;DHT22;16424;50.956;5.320;2022-10-31T17:59:20;18.20;99.90
29453;DHT22;16424;50.956;5.320;2022-10-31T18:01:46;18.20;99.90
29453;DHT22;16424;50.956;5.320;2022-10-31T18:04:12;18.10;99.90
29453;DHT22;16424;50.956;5.320;2022-10-31T18:06:37;18.00;99.90
29453;DHT22;16424;50.956;5.320;2022-10-31T18:09:04;18.00;99.90
29453;DHT22;16424;50.956;5.320;2022-10-31T18:11:30;17.80;99.90
29453;DHT22;16424;50.956;5.320;2022-10-31T18:13:57;17.80;99.90
29453;DHT22;16424;50.956;5.320;2022-10-31T18:16:23;17.70;99.90
29453;DHT22;16424;50.956;5.320;2022-10-31T18:18:55;17.60;99.90
29453;DHT22;16424;50.956;5.320;2022-10-31T18:21:24;17.50;99.90
29453;DHT22;16424;50.956;5.320;2022-10-31T18:23:54;17.50;99.90
29453;DHT22;16424;50.956;5.320;2022-10-31T18:26:21;17.60;99.90
29453;DHT22;16424;50.956;5.320;2022-10-31T18:28:47;17.60;99.90
29453;DHT22;16424;50.956;5.320;2022-10-31T18:31:13;17.50;99.90
29453;DHT22;16424;50.956;5.320;2022-10-31T18:33:39;17.50;99.90